This is the latest recevied weather packets stored in our database for station/object KROG. If no packets are shown the sender has not sent any weather packets the latest 1 day(s).
| Time | Temp. | Humidity | Pressure | Rain* | Wind** | Luminosity | Snow |
|---|---|---|---|---|---|---|---|
| 1777999421 | 17.78° C | 88% | 1006.8 hPa | - | 3.58 m/s, 40° | - | - |
| 1777998817 | 16.67° C | 93% | 1006.1 hPa | - | 2.68 m/s, 70° | - | - |
| 1777998220 | 16.67° C | 93% | 1006.1 hPa | - | 2.68 m/s, 70° | - | - |
| 1777997617 | 16.67° C | 93% | 1006.1 hPa | - | 2.68 m/s, 70° | - | - |
| 1777997025 | 16.67° C | 93% | 1006.1 hPa | - | 2.68 m/s, 70° | - | - |
| 1777996421 | 16.67° C | 93% | 1006.1 hPa | - | 3.58 m/s, 80° | - | - |
| 1777995937 | 16.67° C | 93% | 1006.1 hPa | - | 3.58 m/s, 80° | - | - |
| 1777995217 | 16.67° C | 93% | 1006.1 hPa | - | 4.02 m/s, 90° | - | - |
| 1777994619 | 16.67° C | 93% | 1006.1 hPa | - | 4.02 m/s, 90° | - | - |
| 1777994017 | 16.67° C | 93% | 1006.1 hPa | - | 4.02 m/s, 90° | - | - |
| 1777993415 | 16.67° C | 93% | 1006.1 hPa | - | 4.02 m/s, 90° | - | - |
| 1777992817 | 16.67° C | 93% | 1006.1 hPa | - | 3.58 m/s, 100° | - | - |
| 1777992216 | 15.56° C | 93% | 1006.1 hPa | - | 3.58 m/s, 90° | - | - |
| 1777991615 | 15.56° C | 93% | 1006.1 hPa | - | 3.58 m/s, 90° | - | - |
| 1777991017 | 15.56° C | 93% | 1006.4 hPa | - | 3.58 m/s, 100° | - | - |
| 1777990416 | 15.56° C | 93% | 1006.4 hPa | - | 3.58 m/s, 100° | - | - |
| 1777989815 | 15.56° C | 93% | 1006.8 hPa | - | 4.47 m/s, 70° | - | - |
| 1777989215 | 15.56° C | 93% | 1006.8 hPa | - | 4.02 m/s, 30° | - | - |
| 1777988618 | 15.56° C | 93% | 1006.1 hPa | - | 1.79 m/s, 110° | - | - |
| 1777988016 | 15.56° C | 93% | 1006.1 hPa | - | 1.79 m/s, 110° | - | - |
| 1777987417 | 15.56° C | 93% | 1006.1 hPa | - | 1.79 m/s, 110° | - | - |
| 1777986815 | 15.56° C | 93% | 1006.1 hPa | - | 1.79 m/s, 110° | - | - |
| 1777986215 | 15.56° C | 93% | 1006.1 hPa | - | 1.79 m/s, 110° | - | - |
| 1777985618 | 15.56° C | 93% | 1005.4 hPa | - | 4.02 m/s, 120° | - | - |
| 1777985019 | 15.56° C | 93% | 1005.4 hPa | - | 4.02 m/s, 120° | - | - |
* Rain since midnight (hover to see other rain measurements)
** Current wind speed in m/s (hover to see current wind gust speed)